Brownsville, Ohio
Current Conditions -  °F | °C
As of 10:54 PM on Thursday 27 Nov 2014 (Local Time) from KVTA Reporting Station
Overcast Overcast  
Wind Chill: 21°   Ceiling: 5000
Heat Index: 30°   Visibility: 10mi
Dew Point: 21°   Wind: 10mph
Humidity: 69%   Direction: 270°W
Pressure: 30.31"   Gusts: 21mph
Location:  39.94°N, 82.25°W
Report Text: KVTA 280354Z AUTO 27009G18KT 10SM FEW030 OVC050 M01/M06 A3031 RMK AO2 SLP272 T10111061
Loading
Personal Weather Stations






























Interactive Weather Map New forecast layout! Learn more

10-Day Weather Forecast

Advertisements
Track Severe Weather on mobile